• Join FlightAware (Why Join?)
  • Login
  • US Flag 
12:25PM EDT


 

Airport Tracker/Info


-or-


 

Live Flight TrackerFlight Track Log ✈ AAL832 ✈ 27-Apr-2013 ✈ KLAX - KORD

Flight Track Log - Related Links

Times and Time Zones

All times are in EDT time to prevent confusion due to time zone crossing. See the AAL832 flight status page for this flight to view local times or setup timezone preferences in your user account.

Time Position Orientation Groundspeed Altitude Reporting Facility
EDT Latitude Longitude Course Direction KTS MPH feet Rate Location/Type
12:22PM 33.9333 -118.4667 90° East 191 220 2,100  Level Southern California TRACON
12:23PM 33.8525 -118.5131 205° Southwest 268 308 5,100 2,520 Climbing Los Angeles Center
12:24PM 33.7667 -118.0234 90° East  Level FlightAware Approximate
12:24PM 33.7844 -118.5289 191° South 284 327 7,900  Level Los Angeles Center
12:25PM 33.7667 -117.8762 90° East  Level FlightAware Approximate
12:25PM 33.6942 -118.4989 165° South 296 341 10,800  Level Los Angeles Center
12:26PM 33.7466 -117.7321 97° East  Level FlightAware Approximate
12:26PM 33.6664 -118.4044 109° East 308 354 13,200  Level Los Angeles Center
12:27PM 33.7333 -117.5859 90° East  Level FlightAware Approximate
12:27PM 33.6653 -118.2867 91° East 349 402 14,600  Level Los Angeles Center
12:29PM 33.6619 -118.1392 92° East 389 448 17,100 2,100 Climbing Los Angeles Center
12:30PM 33.6592 -118.0050 91° East 403 464 19,000 1,860 Climbing Los Angeles Center
12:31PM 33.6586 -117.8661 90° East 416 479 21,000 1,800 Climbing Los Angeles Center
12:32PM 33.6561 -117.7244 91° East 426 490 22,800 1,620 Climbing Los Angeles Center
12:33PM 33.6539 -117.5792 91° East 436 502 24,400 1,500 Climbing Los Angeles Center
12:34PM 33.6522 -117.4292 91° East 449 517 26,000 1,500 Climbing Los Angeles Center
12:35PM 33.6492 -117.2481 91° East 454 522 27,600 1,500 Climbing Los Angeles Center
12:36PM 33.6469 -117.0919 91° East 467 537 29,200 1,500 Climbing Los Angeles Center
12:37PM 33.6456 -116.9392 91° East 462 532 30,800 1,500 Climbing Los Angeles Center
12:38PM 33.6753 -116.7714 78° East 458 527 32,300 1,200 Climbing Los Angeles Center
12:39PM 33.7064 -116.6192 76° East 465 535 33,400 1,080 Climbing Los Angeles Center
12:40PM 33.7383 -116.4667 76° East 468 539 34,600 1,080 Climbing Los Angeles Center
12:41PM 33.7686 -116.3119 77° East 473 544 35,700 960 Climbing Los Angeles Center
12:42PM 33.8006 -116.1569 76° East 477 549 36,700 780 Climbing Los Angeles Center
12:43PM 33.8331 -116.0014 76° East 478 550 37,400 720 Climbing Los Angeles Center
12:44PM 33.8711 -115.8142 76° East 479 551 38,200 600 Climbing Los Angeles Center
12:45PM 33.9031 -115.6558 76° East 485 558 38,700 360 Climbing Los Angeles Center
12:46PM 33.9350 -115.4994 76° East 483 556 39,000 120 Climbing Los Angeles Center
12:47PM 33.9661 -115.3422 77° East 483 556 39,000  Level Los Angeles Center
12:48PM 33.9978 -115.1881 76° East 477 549 39,000  Level Los Angeles Center
12:49PM 34.0294 -115.0358 76° East 471 542 39,000  Level Los Angeles Center
12:50PM 34.0606 -114.8833 76° East 470 541 39,000  Level Los Angeles Center
12:51PM 34.0967 -114.7006 77° East 470 541 39,000  Level Los Angeles Center
12:52PM 34.1364 -114.5531 72° East 467 537 39,000  Level Los Angeles Center
12:53PM 34.1781 -114.4050 71° East 468 539 39,000  Level Los Angeles Center
12:54PM 34.1883 -114.3708 70° East 465 535 39,000  Level Albuquerque Center
12:55PM 34.2389 -114.1919 71° East 468 539 39,000  Level Albuquerque Center
12:56PM 34.2792 -114.0422 72° East 468 539 39,000  Level Albuquerque Center
12:57PM 34.3214 -113.8922 71° East 469 540 39,000  Level Albuquerque Center
12:58PM 34.3639 -113.7428 71° East 470 541 39,000  Level Albuquerque Center
12:59PM 34.4056 -113.5925 71° East 472 543 39,000  Level Albuquerque Center
01:00PM 34.4508 -113.4339 71° East 469 540 39,000  Level Albuquerque Center
01:01PM 34.4906 -113.2833 72° East 471 542 39,000  Level Albuquerque Center
01:02PM 34.5308 -113.1322 72° East 473 544 39,000  Level Albuquerque Center
01:03PM 34.5781 -112.9506 72° East 475 547 39,000  Level Albuquerque Center
01:04PM 34.6178 -112.8000 72° East 474 545 39,000  Level Albuquerque Center
01:05PM 34.6583 -112.6486 72° East 475 547 39,000  Level Albuquerque Center
01:06PM 34.6969 -112.4981 73° East 475 547 39,000  Level Albuquerque Center
01:07PM 34.7339 -112.3444 74° East 473 544 39,000  Level Albuquerque Center
01:08PM 34.7669 -112.1958 75° East 470 541 39,000  Level Albuquerque Center
01:09PM 34.8092 -112.0136 74° East 471 542 39,000  Level Albuquerque Center
01:10PM 34.8436 -111.8628 74° East 469 540 39,000 -120 Level Albuquerque Center
01:11PM 34.8800 -111.7006 75° East 469 540 38,800 -660 Descending Albuquerque Center
01:12PM 34.9131 -111.5481 75° East 467 537 37,700 -900 Descending Albuquerque Center
01:13PM 34.9464 -111.3994 75° East 458 527 37,000 -360 Descending Albuquerque Center
01:14PM 34.9792 -111.2522 75° East 452 520 37,000  Level Albuquerque Center
01:15PM 35.0125 -111.1039 75° East 452 520 37,000  Level Albuquerque Center
01:16PM 35.0444 -110.9522 76° East 459 528 37,000  Level Albuquerque Center
01:17PM 35.0828 -110.7789 75° East 463 533 37,000  Level Albuquerque Center
01:18PM 35.1200 -110.6086 75° East 465 535 37,000  Level Albuquerque Center
01:19PM 35.1500 -110.4619 76° East 465 535 37,000  Level Albuquerque Center
01:20PM 35.1825 -110.3156 75° East 466 536 37,000  Level Albuquerque Center
01:22PM 35.2192 -110.1469 75° East 463 533 37,000  Level Albuquerque Center
01:23PM 35.2500 -110.0006 75° East 464 534 37,000  Level Albuquerque Center
01:24PM 35.2858 -109.8292 76° East 465 535 37,000  Level Albuquerque Center
01:25PM 35.3172 -109.6819 75° East 467 537 37,000  Level Albuquerque Center
01:26PM 35.3508 -109.5094 77° East 467 537 37,000  Level Albuquerque Center
01:27PM 35.3803 -109.3631 76° East 465 535 37,000  Level Albuquerque Center
01:28PM 35.4153 -109.1900 76° East 469 540 37,000  Level Albuquerque Center
01:29PM 35.4444 -109.0436 76° East 466 536 37,000  Level Albuquerque Center
01:30PM 35.4789 -108.8719 76° East 467 537 37,000  Level Albuquerque Center
01:31PM 35.5167 -108.7292 72° East 464 534 37,000  Level Albuquerque Center
01:32PM 35.5622 -108.5617 71° East 465 535 37,000  Level Albuquerque Center
01:33PM 35.6011 -108.4189 71° East 464 534 37,000  Level Albuquerque Center
01:34PM 35.6467 -108.2531 71° East 463 533 37,000  Level Albuquerque Center
01:35PM 35.6844 -108.1117 72° East 459 528 37,000  Level Albuquerque Center
01:36PM 35.7269 -107.9456 72° East 458 527 37,000  Level Albuquerque Center
01:37PM 35.7642 -107.8047 72° East 455 524 37,000  Level Albuquerque Center
01:38PM 35.8056 -107.6411 73° East 452 520 37,000  Level Albuquerque Center
01:39PM 35.8414 -107.5011 72° East 450 518 37,000  Level Albuquerque Center
01:40PM 35.8792 -107.3597 72° East 452 520 37,000  Level Albuquerque Center
01:41PM 35.9206 -107.1958 73° East 450 518 37,000  Level Albuquerque Center
01:42PM 35.9550 -107.0594 73° East 448 516 37,000  Level Albuquerque Center
01:43PM 35.9939 -106.9119 72° East 449 517 37,000  Level Albuquerque Center
01:44PM 36.0314 -106.7642 73° East 450 518 37,000  Level Albuquerque Center
01:45PM 36.0772 -106.5844 72° East 454 522 37,000  Level Albuquerque Center
01:46PM 36.1139 -106.4347 73° East 455 524 37,000  Level Albuquerque Center
01:47PM 36.1522 -106.2869 72° East 452 520 37,000  Level Albuquerque Center
01:48PM 36.1889 -106.1361 73° East 455 524 37,000  Level Albuquerque Center
01:49PM 36.2256 -105.9867 73° East 455 524 37,000  Level Albuquerque Center
01:50PM 36.2619 -105.8339 74° East 459 528 37,000  Level Albuquerque Center
01:51PM 36.2978 -105.6817 74° East 461 531 37,000  Level Albuquerque Center
01:52PM 36.3383 -105.5153 73° East 455 524 37,000  Level Albuquerque Center
01:53PM 36.3742 -105.3628 74° East 455 524 37,000  Level Albuquerque Center
01:55PM 36.4169 -105.1869 73° East 453 521 37,000  Level Albuquerque Center
01:56PM 36.4533 -105.0358 73° East 453 521 37,000  Level Albuquerque Center
01:57PM 36.4894 -104.8839 73° East 453 521 37,000  Level Albuquerque Center
01:58PM 36.5397 -104.7397 66° East 450 518 37,000  Level Albuquerque Center
01:59PM 36.5908 -104.5967 66° East 448 516 37,000  Level Albuquerque Center
02:00PM 36.6428 -104.4528 66° East 450 518 37,000  Level Albuquerque Center
02:01PM 36.6997 -104.2986 65° Northeast 450 518 37,000  Level Albuquerque Center
02:02PM 36.7483 -104.1622 66° East 449 517 37,000  Level Albuquerque Center
02:03PM 36.8053 -104.0042 66° East 450 518 37,000  Level Albuquerque Center
02:04PM 36.8536 -103.8686 66° East 449 517 37,000  Level Albuquerque Center
02:05PM 36.9111 -103.7111 65° Northeast 449 517 37,000  Level Albuquerque Center
02:06PM 36.9581 -103.5764 66° East 447 514 37,000  Level Albuquerque Center
02:07PM 37.0058 -103.4403 66° East 448 516 37,000  Level Albuquerque Center
02:08PM 37.0625 -103.2808 66° East 450 518 37,000  Level Albuquerque Center
02:09PM 37.1094 -103.1442 67° East 450 518 37,000  Level Albuquerque Center
02:10PM 37.1644 -102.9839 67° East 450 518 37,000  Level Albuquerque Center
02:11PM 37.2131 -102.8458 66° East 452 520 37,000  Level Albuquerque Center
02:12PM 37.2697 -102.6861 66° East 450 518 37,000  Level Albuquerque Center
02:13PM 37.3150 -102.5492 67° East 447 514 37,000  Level Albuquerque Center
02:14PM 37.3706 -102.3897 66° East 447 514 37,000  Level Albuquerque Center
02:15PM 37.4144 -102.2561 67° East 446 513 37,000  Level Albuquerque Center
02:16PM 37.4667 -102.0967 68° East 443 510 37,000  Level Albuquerque Center
02:17PM 37.5122 -101.9611 67° East 440 506 37,000  Level Albuquerque Center
02:19PM 37.5800 -101.7564 67° East 440 506 37,000  Level Kansas City Center
02:20PM 37.6242 -101.6217 67° East 436 502 37,000  Level Kansas City Center
02:21PM 37.6764 -101.4639 67° East 436 502 37,000  Level Kansas City Center
02:22PM 37.7211 -101.3267 68° East 439 505 37,000  Level Kansas City Center
02:23PM 37.7661 -101.1903 67° East 438 504 37,000  Level Kansas City Center
02:24PM 37.8183 -101.0297 68° East 438 504 37,000  Level Kansas City Center
02:25PM 37.8650 -100.8919 67° East 438 504 37,000  Level Kansas City Center
02:26PM 37.9108 -100.7542 67° East 440 506 37,000  Level Kansas City Center
02:27PM 37.9647 -100.5947 67° East 439 505 37,000  Level Kansas City Center
02:28PM 38.0119 -100.4597 66° East 437 503 37,000  Level Kansas City Center
02:29PM 38.0661 -100.3003 67° East 438 504 37,000  Level Kansas City Center
02:30PM 38.1114 -100.1642 67° East 438 504 37,000  Level Kansas City Center
02:31PM 38.1636 -100.0081 67° East 433 498 37,000  Level Kansas City Center
02:32PM 38.2083 -99.8722 67° East 434 499 37,000  Level Kansas City Center
02:33PM 38.2589 -99.7142 68° East 432 497 37,000  Level Kansas City Center
02:34PM 38.3044 -99.5794 67° East 433 498 37,000  Level Kansas City Center
02:35PM 38.3492 -99.4381 68° East 433 498 37,000  Level Kansas City Center
02:36PM 38.3961 -99.2958 67° East 434 499 37,000  Level Kansas City Center
02:37PM 38.4431 -99.1542 67° East 433 498 37,000  Level Kansas City Center
02:38PM 38.4894 -99.0106 68° East 436 502 37,000  Level Kansas City Center
02:39PM 38.5361 -98.8678 67° East 435 501 37,000  Level Kansas City Center
02:40PM 38.5831 -98.7214 68° East 441 507 37,000  Level Kansas City Center
02:41PM 38.6378 -98.5467 68° East 439 505 37,000  Level Kansas City Center
02:42PM 38.6844 -98.4017 68° East 440 506 37,000  Level Kansas City Center
02:43PM 38.7303 -98.2569 68° East 440 506 37,000  Level Kansas City Center
02:44PM 38.7758 -98.1108 68° East 440 506 37,000  Level Kansas City Center
02:45PM 38.8214 -97.9653 68° East 439 505 37,000  Level Kansas City Center
02:46PM 38.8672 -97.8197 68° East 439 505 37,000  Level Kansas City Center
02:47PM 38.9175 -97.6567 68° East 438 504 37,000  Level Kansas City Center
02:48PM 38.9625 -97.4942 70° East 442 509 37,000  Level Kansas City Center
02:49PM 39.0003 -97.3472 72° East 441 507 37,000  Level Kansas City Center
02:50PM 39.0383 -97.2031 71° East 444 511 37,000  Level Kansas City Center
02:51PM 39.0822 -97.0358 71° East 442 509 37,000  Level Kansas City Center
02:53PM 39.1206 -96.8911 71° East 446 513 37,000  Level Kansas City Center
02:54PM 39.1578 -96.7453 72° East 446 513 37,000  Level Kansas City Center
02:55PM 39.2014 -96.5747 72° East 448 516 37,000  Level Kansas City Center
02:56PM 39.2375 -96.4294 72° East 446 513 37,000  Level Kansas City Center
02:57PM 39.2756 -96.2819 72° East 450 518 37,000  Level Kansas City Center
02:58PM 39.3181 -96.1092 72° East 452 520 37,000  Level Kansas City Center
02:59PM 39.3611 -95.9375 72° East 450 518 37,000  Level Kansas City Center
03:00PM 39.3983 -95.7883 72° East 453 521 37,000  Level Kansas City Center
03:01PM 39.4350 -95.6400 72° East 452 520 37,000  Level Kansas City Center
03:02PM 39.4767 -95.4661 73° East 449 517 37,000  Level Kansas City Center
03:03PM 39.5144 -95.3106 72° East 450 518 37,000  Level Kansas City Center
03:04PM 39.5492 -95.1664 73° East 452 520 37,000  Level Kansas City Center
03:05PM 39.5911 -94.9917 73° East 452 520 37,000  Level Kansas City Center
03:06PM 39.6272 -94.8422 73° East 451 519 37,000  Level Kansas City Center
03:07PM 39.6686 -94.6661 73° East 456 525 37,000  Level Kansas City Center
03:08PM 39.7044 -94.5142 73° East 457 526 37,000  Level Kansas City Center
03:09PM 39.7406 -94.3617 73° East 460 529 37,000  Level Kansas City Center
03:10PM 39.7814 -94.1828 73° East 461 531 37,000  Level Kansas City Center
03:11PM 39.8153 -94.0317 74° East 469 540 37,000  Level Kansas City Center
03:12PM 39.8503 -93.8697 74° East 469 540 37,000  Level Kansas City Center
03:13PM 39.8942 -93.6778 73° East 465 535 37,000  Level Kansas City Center
03:14PM 39.9300 -93.5183 74° East 464 534 37,000  Level Kansas City Center
03:15PM 39.9653 -93.3611 74° East 459 528 37,000  Level Kansas City Center
03:16PM 40.0019 -93.2028 73° East 461 531 37,000  Level Kansas City Center
03:17PM 40.0364 -93.0444 74° East 460 529 37,000  Level Kansas City Center
03:18PM 40.0728 -92.8719 75° East 462 532 37,000  Level Kansas City Center
03:19PM 40.1119 -92.6914 74° East 463 533 37,000  Level Kansas City Center
03:20PM 40.1517 -92.5386 71° East 464 534 37,000  Level Kansas City Center
03:21PM 40.2178 -92.3717 63° Northeast 462 532 37,000  Level Kansas City Center
03:22PM 40.2628 -92.2406 66° East 471 542 37,000  Level Kansas City Center
03:23PM 40.3275 -92.0589 65° Northeast 466 536 37,000  Level Kansas City Center
03:24PM 40.3825 -91.9053 65° Northeast 468 539 37,000 -540 Level Kansas City Center
03:25PM 40.4361 -91.7503 66° East 470 541 36,000 -1,320 Descending Kansas City Center
03:26PM 40.4800 -91.6236 65° Northeast 477 549 34,700 -1,620 Descending Chicago Center
03:27PM 40.5339 -91.4656 66° East 478 550 33,200 -840 Descending Chicago Center
03:28PM 40.5869 -91.3061 66° East 479 551 33,000 -120 Descending Chicago Center
03:29PM 40.6431 -91.1453 65° Northeast 477 549 33,000  Level Chicago Center
03:30PM 40.6978 -90.9833 66° East 482 555 33,000  Level Chicago Center
03:31PM 40.7528 -90.8211 66° East 484 557 33,000 -540 Level Chicago Center
03:32PM 40.8181 -90.6250 66° East 485 558 31,900 -1,320 Descending Chicago Center
03:33PM 40.8731 -90.4631 66° East 483 556 30,300 -1,440 Descending Chicago Center
03:34PM 40.9267 -90.3031 66° East 473 544 29,000 -1,260 Descending Chicago Center
03:35PM 40.9783 -90.1475 66° East 472 543 27,700 -1,380 Descending Chicago Center
03:36PM 41.0317 -89.9833 67° East 465 535 26,200 -1,440 Descending Chicago Center
03:37PM 41.0833 -89.8283 66° East 456 525 24,800 -1,080 Descending Chicago Center
03:38PM 41.1322 -89.6778 67° East 445 512 24,000 -1,260 Descending Chicago Center
03:40PM 41.1839 -89.5314 65° Northeast 438 504 22,300 -1,860 Descending Chicago Center
03:41PM 41.2414 -89.3922 61° Northeast 431 496 20,200 -2,220 Descending Chicago Center
03:42PM 41.2950 -89.2603 62° Northeast 412 474 17,800 -2,160 Descending Chicago Center
03:43PM 41.3472 -89.1222 63° Northeast 386 444 15,800 -1,860 Descending Chicago Center
03:44PM 41.3964 -89.0019 61° Northeast 374 430 14,000 -1,920 Descending Chicago Center
03:45PM 41.4536 -88.8564 62° Northeast 370 426 11,900 -1,500 Descending Chicago Center
03:46PM 41.5008 -88.7381 62° Northeast 364 419 11,000 -480 Descending Chicago Center
03:47PM 41.5478 -88.6197 62° Northeast 362 417 11,000  Level Chicago Center
03:48PM 41.6061 -88.5097 55° Northeast 367 422 11,000  Level Chicago Center
03:49PM 41.6731 -88.4042 50° Northeast 371 427 11,000  Level Chicago Center
03:50PM 41.7381 -88.2997 50° Northeast 366 421 11,000 -300 Level Chicago Center
03:51PM 41.7942 -88.2106 50° Northeast 320 368 10,400 -900 Descending Chicago Center
03:52PM 41.8425 -88.1267 52° Northeast 289 333 9,200 -1,440 Descending Chicago Center
03:53PM 41.8800 -88.0150 66° East 275 316 7,500 -1,080 Descending Chicago Center
03:54PM 41.9131 -87.9231 64° Northeast 274 315 7,000 -300 Descending Chicago Center
03:55PM 41.9444 -87.8339 65° Northeast 266 306 7,000  Level Chicago Center